sensor_id;sensor_type;location;lat;lon;timestamp;P1;durP1;ratioP1;P2;durP2;ratioP2
56043;SDS011;41912;51.022;3.664;2023-03-23T00:02:05;5.03;;;2.08;;
56043;SDS011;41912;51.022;3.664;2023-03-23T00:04:30;4.15;;;2.00;;
56043;SDS011;41912;51.022;3.664;2023-03-23T00:06:56;2.72;;;2.08;;
56043;SDS011;41912;51.022;3.664;2023-03-23T00:09:22;4.93;;;2.00;;
56043;SDS011;41912;51.022;3.664;2023-03-23T00:11:48;4.55;;;2.28;;
56043;SDS011;41912;51.022;3.664;2023-03-23T00:14:15;7.35;;;2.22;;
56043;SDS011;41912;51.022;3.664;2023-03-23T00:16:41;5.22;;;2.40;;
56043;SDS011;41912;51.022;3.664;2023-03-23T00:19:11;6.97;;;2.33;;
56043;SDS011;41912;51.022;3.664;2023-03-23T00:21:38;5.10;;;2.20;;
56043;SDS011;41912;51.022;3.664;2023-03-23T00:24:10;3.88;;;2.42;;
56043;SDS011;41912;51.022;3.664;2023-03-23T00:26:47;8.80;;;2.50;;
56043;SDS011;41912;51.022;3.664;2023-03-23T00:29:15;7.88;;;2.60;;
56043;SDS011;41912;51.022;3.664;2023-03-23T00:31:43;4.22;;;2.03;;
56043;SDS011;41912;51.022;3.664;2023-03-23T00:34:16;4.60;;;2.05;;
56043;SDS011;41912;51.022;3.664;2023-03-23T00:36:46;4.35;;;2.17;;
56043;SDS011;41912;51.022;3.664;2023-03-23T00:39:14;3.22;;;2.60;;
56043;SDS011;41912;51.022;3.664;2023-03-23T00:41:41;3.45;;;2.00;;
56043;SDS011;41912;51.022;3.664;2023-03-23T00:44:07;3.50;;;2.45;;
56043;SDS011;41912;51.022;3.664;2023-03-23T00:46:33;3.40;;;2.30;;
56043;SDS011;41912;51.022;3.664;2023-03-23T00:48:59;4.25;;;2.40;;
56043;SDS011;41912;51.022;3.664;2023-03-23T00:51:25;6.05;;;2.13;;
56043;SDS011;41912;51.022;3.664;2023-03-23T00:53:50;6.93;;;1.90;;
56043;SDS011;41912;51.022;3.664;2023-03-23T00:56:16;5.38;;;2.38;;
56043;SDS011;41912;51.022;3.664;2023-03-23T00:58:42;4.22;;;2.00;;
56043;SDS011;41912;51.022;3.664;2023-03-23T01:01:08;4.78;;;2.10;;
56043;SDS011;41912;51.022;3.664;2023-03-23T01:03:34;5.30;;;2.30;;
56043;SDS011;41912;51.022;3.664;2023-03-23T01:06:04;6.32;;;1.92;;
56043;SDS011;41912;51.022;3.664;2023-03-23T01:08:37;3.25;;;1.67;;
56043;SDS011;41912;51.022;3.664;2023-03-23T01:11:10;3.60;;;1.85;;
56043;SDS011;41912;51.022;3.664;2023-03-23T01:13:40;4.18;;;1.98;;
56043;SDS011;41912;51.022;3.664;2023-03-23T01:16:06;5.55;;;1.80;;
56043;SDS011;41912;51.022;3.664;2023-03-23T01:18:33;4.30;;;1.63;;
56043;SDS011;41912;51.022;3.664;2023-03-23T01:21:03;2.50;;;1.63;;
56043;SDS011;41912;51.022;3.664;2023-03-23T01:23:31;3.55;;;2.22;;
56043;SDS011;41912;51.022;3.664;2023-03-23T01:25:58;5.28;;;2.00;;
56043;SDS011;41912;51.022;3.664;2023-03-23T01:28:28;2.75;;;1.77;;
56043;SDS011;41912;51.022;3.664;2023-03-23T01:30:58;2.75;;;1.90;;
56043;SDS011;41912;51.022;3.664;2023-03-23T01:33:31;2.05;;;1.60;;
56043;SDS011;41912;51.022;3.664;2023-03-23T01:35:57;3.90;;;1.63;;
56043;SDS011;41912;51.022;3.664;2023-03-23T01:38:27;2.75;;;1.55;;
56043;SDS011;41912;51.022;3.664;2023-03-23T01:40:53;3.45;;;1.75;;
56043;SDS011;41912;51.022;3.664;2023-03-23T01:43:18;7.07;;;1.58;;
56043;SDS011;41912;51.022;3.664;2023-03-23T01:45:44;2.90;;;1.80;;
56043;SDS011;41912;51.022;3.664;2023-03-23T01:53:42;7.30;;;1.75;;
56043;SDS011;41912;51.022;3.664;2023-03-23T01:56:11;3.65;;;1.60;;
56043;SDS011;41912;51.022;3.664;2023-03-23T01:58:40;3.83;;;1.33;;
56043;SDS011;41912;51.022;3.664;2023-03-23T02:01:10;3.28;;;1.55;;
56043;SDS011;41912;51.022;3.664;2023-03-23T02:03:39;10.18;;;1.80;;
56043;SDS011;41912;51.022;3.664;2023-03-23T02:06:07;2.15;;;1.50;;
56043;SDS011;41912;51.022;3.664;2023-03-23T02:08:33;2.47;;;1.30;;
56043;SDS011;41912;51.022;3.664;2023-03-23T02:11:00;8.63;;;1.55;;
56043;SDS011;41912;51.022;3.664;2023-03-23T02:13:26;3.80;;;1.27;;
56043;SDS011;41912;51.022;3.664;2023-03-23T02:16:02;6.47;;;1.88;;
56043;SDS011;41912;51.022;3.664;2023-03-23T02:24:30;4.32;;;1.40;;
56043;SDS011;41912;51.022;3.664;2023-03-23T02:27:01;8.40;;;1.55;;
56043;SDS011;41912;51.022;3.664;2023-03-23T02:38:08;8.63;;;1.67;;
56043;SDS011;41912;51.022;3.664;2023-03-23T02:40:44;6.78;;;2.10;;
56043;SDS011;41912;51.022;3.664;2023-03-23T02:43:15;9.02;;;1.77;;
56043;SDS011;41912;51.022;3.664;2023-03-23T02:45:44;3.40;;;1.40;;
56043;SDS011;41912;51.022;3.664;2023-03-23T02:48:10;8.95;;;1.55;;
56043;SDS011;41912;51.022;3.664;2023-03-23T02:50:40;5.13;;;2.30;;
56043;SDS011;41912;51.022;3.664;2023-03-23T02:53:10;6.30;;;1.55;;
56043;SDS011;41912;51.022;3.664;2023-03-23T02:55:39;6.45;;;1.48;;
56043;SDS011;41912;51.022;3.664;2023-03-23T02:58:07;4.60;;;1.48;;
56043;SDS011;41912;51.022;3.664;2023-03-23T03:00:34;8.15;;;1.30;;
56043;SDS011;41912;51.022;3.664;2023-03-23T03:03:00;8.30;;;1.85;;
56043;SDS011;41912;51.022;3.664;2023-03-23T03:11:15;5.78;;;1.27;;
56043;SDS011;41912;51.022;3.664;2023-03-23T03:13:59;7.13;;;1.95;;
56043;SDS011;41912;51.022;3.664;2023-03-23T03:16:52;6.43;;;1.55;;
56043;SDS011;41912;51.022;3.664;2023-03-23T03:19:33;4.18;;;1.20;;
56043;SDS011;41912;51.022;3.664;2023-03-23T03:22:03;4.63;;;1.38;;
56043;SDS011;41912;51.022;3.664;2023-03-23T03:24:30;3.25;;;1.20;;
56043;SDS011;41912;51.022;3.664;2023-03-23T03:26:57;6.93;;;1.48;;
56043;SDS011;41912;51.022;3.664;2023-03-23T03:29:26;4.80;;;1.45;;
56043;SDS011;41912;51.022;3.664;2023-03-23T03:31:57;8.32;;;1.30;;
56043;SDS011;41912;51.022;3.664;2023-03-23T03:34:26;4.85;;;1.55;;
56043;SDS011;41912;51.022;3.664;2023-03-23T03:36:53;5.85;;;1.27;;
56043;SDS011;41912;51.022;3.664;2023-03-23T03:39:23;4.22;;;1.30;;
56043;SDS011;41912;51.022;3.664;2023-03-23T03:41:49;5.15;;;1.38;;
56043;SDS011;41912;51.022;3.664;2023-03-23T03:44:15;8.45;;;1.65;;
56043;SDS011;41912;51.022;3.664;2023-03-23T03:46:41;2.70;;;0.85;;
56043;SDS011;41912;51.022;3.664;2023-03-23T03:49:07;8.00;;;1.80;;
56043;SDS011;41912;51.022;3.664;2023-03-23T03:51:37;8.00;;;1.70;;
56043;SDS011;41912;51.022;3.664;2023-03-23T03:54:02;6.18;;;1.83;;
56043;SDS011;41912;51.022;3.664;2023-03-23T03:56:28;8.57;;;1.67;;
56043;SDS011;41912;51.022;3.664;2023-03-23T03:58:56;10.57;;;1.70;;
56043;SDS011;41912;51.022;3.664;2023-03-23T04:01:22;8.32;;;1.70;;
56043;SDS011;41912;51.022;3.664;2023-03-23T04:03:49;4.38;;;1.38;;
56043;SDS011;41912;51.022;3.664;2023-03-23T04:06:15;8.07;;;1.65;;
56043;SDS011;41912;51.022;3.664;2023-03-23T04:08:42;8.15;;;1.55;;
56043;SDS011;41912;51.022;3.664;2023-03-23T04:11:10;8.00;;;1.83;;
56043;SDS011;41912;51.022;3.664;2023-03-23T04:13:37;7.03;;;1.60;;
56043;SDS011;41912;51.022;3.664;2023-03-23T04:16:03;8.02;;;1.65;;
56043;SDS011;41912;51.022;3.664;2023-03-23T04:18:33;6.10;;;1.48;;
56043;SDS011;41912;51.022;3.664;2023-03-23T04:20:59;11.05;;;2.65;;
56043;SDS011;41912;51.022;3.664;2023-03-23T04:23:27;7.00;;;2.00;;
56043;SDS011;41912;51.022;3.664;2023-03-23T04:25:55;9.15;;;2.15;;
56043;SDS011;41912;51.022;3.664;2023-03-23T04:28:23;6.47;;;1.83;;
56043;SDS011;41912;51.022;3.664;2023-03-23T04:30:50;6.78;;;2.08;;
56043;SDS011;41912;51.022;3.664;2023-03-23T04:33:23;7.53;;;1.88;;
56043;SDS011;41912;51.022;3.664;2023-03-23T04:35:54;9.00;;;1.75;;
56043;SDS011;41912;51.022;3.664;2023-03-23T04:38:22;5.10;;;1.45;;
56043;SDS011;41912;51.022;3.664;2023-03-23T04:40:50;10.00;;;2.47;;
56043;SDS011;41912;51.022;3.664;2023-03-23T04:43:18;9.45;;;2.20;;
56043;SDS011;41912;51.022;3.664;2023-03-23T04:45:46;9.57;;;1.92;;
56043;SDS011;41912;51.022;3.664;2023-03-23T04:48:12;9.68;;;1.70;;
56043;SDS011;41912;51.022;3.664;2023-03-23T04:50:38;9.02;;;1.95;;
56043;SDS011;41912;51.022;3.664;2023-03-23T04:53:04;10.38;;;2.28;;
56043;SDS011;41912;51.022;3.664;2023-03-23T04:55:34;11.50;;;2.17;;
56043;SDS011;41912;51.022;3.664;2023-03-23T04:58:01;9.82;;;2.00;;
56043;SDS011;41912;51.022;3.664;2023-03-23T05:00:28;5.40;;;1.80;;
56043;SDS011;41912;51.022;3.664;2023-03-23T05:02:53;10.85;;;2.05;;
56043;SDS011;41912;51.022;3.664;2023-03-23T05:05:20;8.02;;;2.00;;
56043;SDS011;41912;51.022;3.664;2023-03-23T05:07:47;10.95;;;2.00;;
56043;SDS011;41912;51.022;3.664;2023-03-23T05:10:13;13.85;;;2.30;;
56043;SDS011;41912;51.022;3.664;2023-03-23T05:12:40;9.85;;;2.17;;
56043;SDS011;41912;51.022;3.664;2023-03-23T05:15:07;12.07;;;2.05;;
56043;SDS011;41912;51.022;3.664;2023-03-23T05:17:34;7.03;;;1.70;;
56043;SDS011;41912;51.022;3.664;2023-03-23T05:20:00;4.93;;;1.75;;
56043;SDS011;41912;51.022;3.664;2023-03-23T05:22:29;10.45;;;2.35;;
56043;SDS011;41912;51.022;3.664;2023-03-23T05:24:58;8.65;;;2.28;;
56043;SDS011;41912;51.022;3.664;2023-03-23T05:27:27;7.53;;;1.98;;
56043;SDS011;41912;51.022;3.664;2023-03-23T05:29:55;13.73;;;3.60;;
56043;SDS011;41912;51.022;3.664;2023-03-23T05:32:23;8.30;;;1.90;;
56043;SDS011;41912;51.022;3.664;2023-03-23T05:34:59;15.88;;;2.70;;
56043;SDS011;41912;51.022;3.664;2023-03-23T05:37:26;8.00;;;1.98;;
56043;SDS011;41912;51.022;3.664;2023-03-23T05:39:59;4.32;;;2.00;;
56043;SDS011;41912;51.022;3.664;2023-03-23T05:42:30;7.20;;;1.58;;
56043;SDS011;41912;51.022;3.664;2023-03-23T05:44:56;9.10;;;1.77;;
56043;SDS011;41912;51.022;3.664;2023-03-23T05:47:23;5.90;;;1.17;;
56043;SDS011;41912;51.022;3.664;2023-03-23T05:49:48;7.35;;;2.15;;
56043;SDS011;41912;51.022;3.664;2023-03-23T05:52:14;7.38;;;2.05;;
56043;SDS011;41912;51.022;3.664;2023-03-23T05:54:40;7.82;;;1.45;;
56043;SDS011;41912;51.022;3.664;2023-03-23T05:57:06;8.20;;;1.60;;
56043;SDS011;41912;51.022;3.664;2023-03-23T05:59:33;11.07;;;1.65;;
56043;SDS011;41912;51.022;3.664;2023-03-23T06:02:00;7.30;;;1.77;;
56043;SDS011;41912;51.022;3.664;2023-03-23T06:04:26;10.90;;;2.45;;
56043;SDS011;41912;51.022;3.664;2023-03-23T06:06:52;6.43;;;1.30;;
56043;SDS011;41912;51.022;3.664;2023-03-23T06:09:18;5.75;;;1.33;;
56043;SDS011;41912;51.022;3.664;2023-03-23T06:11:44;6.95;;;1.60;;
56043;SDS011;41912;51.022;3.664;2023-03-23T06:14:10;4.50;;;1.00;;
56043;SDS011;41912;51.022;3.664;2023-03-23T06:16:36;5.57;;;1.00;;
56043;SDS011;41912;51.022;3.664;2023-03-23T06:19:02;4.32;;;1.50;;
56043;SDS011;41912;51.022;3.664;2023-03-23T06:21:29;8.13;;;1.10;;
56043;SDS011;41912;51.022;3.664;2023-03-23T06:23:55;6.18;;;1.23;;
56043;SDS011;41912;51.022;3.664;2023-03-23T06:26:21;6.22;;;1.33;;
56043;SDS011;41912;51.022;3.664;2023-03-23T06:28:50;5.45;;;1.17;;
56043;SDS011;41912;51.022;3.664;2023-03-23T06:31:15;10.07;;;1.75;;
56043;SDS011;41912;51.022;3.664;2023-03-23T06:33:42;5.32;;;1.20;;
56043;SDS011;41912;51.022;3.664;2023-03-23T06:36:08;6.15;;;1.30;;
56043;SDS011;41912;51.022;3.664;2023-03-23T06:38:36;6.45;;;1.70;;
56043;SDS011;41912;51.022;3.664;2023-03-23T06:41:02;9.98;;;1.40;;
56043;SDS011;41912;51.022;3.664;2023-03-23T06:43:28;5.53;;;1.60;;
56043;SDS011;41912;51.022;3.664;2023-03-23T06:45:53;9.13;;;1.40;;
56043;SDS011;41912;51.022;3.664;2023-03-23T06:48:19;7.63;;;1.88;;
56043;SDS011;41912;51.022;3.664;2023-03-23T06:50:45;9.05;;;1.42;;
56043;SDS011;41912;51.022;3.664;2023-03-23T06:53:11;7.45;;;1.92;;
56043;SDS011;41912;51.022;3.664;2023-03-23T06:55:38;9.98;;;1.75;;
56043;SDS011;41912;51.022;3.664;2023-03-23T06:58:04;4.40;;;1.13;;
56043;SDS011;41912;51.022;3.664;2023-03-23T07:00:31;12.93;;;2.17;;
56043;SDS011;41912;51.022;3.664;2023-03-23T07:02:57;8.20;;;1.73;;
56043;SDS011;41912;51.022;3.664;2023-03-23T07:05:23;4.70;;;1.15;;
56043;SDS011;41912;51.022;3.664;2023-03-23T07:07:50;10.20;;;2.45;;
56043;SDS011;41912;51.022;3.664;2023-03-23T07:10:15;6.85;;;1.55;;
56043;SDS011;41912;51.022;3.664;2023-03-23T07:12:41;6.15;;;1.38;;
56043;SDS011;41912;51.022;3.664;2023-03-23T07:15:08;8.55;;;1.40;;
56043;SDS011;41912;51.022;3.664;2023-03-23T07:17:35;8.38;;;1.83;;
56043;SDS011;41912;51.022;3.664;2023-03-23T07:20:02;7.63;;;1.58;;
56043;SDS011;41912;51.022;3.664;2023-03-23T07:22:28;7.22;;;1.80;;
56043;SDS011;41912;51.022;3.664;2023-03-23T07:24:54;7.68;;;1.67;;
56043;SDS011;41912;51.022;3.664;2023-03-23T07:27:19;6.68;;;1.50;;
56043;SDS011;41912;51.022;3.664;2023-03-23T07:29:45;8.55;;;1.48;;
56043;SDS011;41912;51.022;3.664;2023-03-23T07:32:11;11.63;;;2.38;;
56043;SDS011;41912;51.022;3.664;2023-03-23T07:34:37;5.30;;;1.40;;
56043;SDS011;41912;51.022;3.664;2023-03-23T07:37:04;8.57;;;1.88;;
56043;SDS011;41912;51.022;3.664;2023-03-23T07:39:30;8.77;;;1.60;;
56043;SDS011;41912;51.022;3.664;2023-03-23T07:41:56;9.25;;;1.58;;
56043;SDS011;41912;51.022;3.664;2023-03-23T07:44:22;14.32;;;2.00;;
56043;SDS011;41912;51.022;3.664;2023-03-23T07:46:48;12.45;;;2.03;;
56043;SDS011;41912;51.022;3.664;2023-03-23T07:49:14;13.48;;;2.60;;
56043;SDS011;41912;51.022;3.664;2023-03-23T07:51:40;7.22;;;1.33;;
56043;SDS011;41912;51.022;3.664;2023-03-23T07:54:06;7.00;;;1.95;;
56043;SDS011;41912;51.022;3.664;2023-03-23T07:56:32;10.40;;;2.17;;
56043;SDS011;41912;51.022;3.664;2023-03-23T07:58:59;8.13;;;1.33;;
56043;SDS011;41912;51.022;3.664;2023-03-23T08:01:25;10.05;;;1.55;;
56043;SDS011;41912;51.022;3.664;2023-03-23T08:03:51;8.18;;;1.35;;
56043;SDS011;41912;51.022;3.664;2023-03-23T08:06:19;8.52;;;1.65;;
56043;SDS011;41912;51.022;3.664;2023-03-23T08:08:46;5.35;;;1.30;;
56043;SDS011;41912;51.022;3.664;2023-03-23T08:11:12;4.05;;;1.50;;
56043;SDS011;41912;51.022;3.664;2023-03-23T08:13:40;5.65;;;1.50;;
56043;SDS011;41912;51.022;3.664;2023-03-23T08:16:06;6.53;;;1.88;;
56043;SDS011;41912;51.022;3.664;2023-03-23T08:18:34;8.25;;;1.63;;
56043;SDS011;41912;51.022;3.664;2023-03-23T08:21:01;6.93;;;1.48;;
56043;SDS011;41912;51.022;3.664;2023-03-23T08:23:29;11.88;;;1.98;;
56043;SDS011;41912;51.022;3.664;2023-03-23T08:25:55;6.28;;;1.80;;
56043;SDS011;41912;51.022;3.664;2023-03-23T08:28:21;15.50;;;1.83;;
56043;SDS011;41912;51.022;3.664;2023-03-23T08:30:47;6.88;;;1.45;;
56043;SDS011;41912;51.022;3.664;2023-03-23T08:33:13;7.70;;;1.92;;
56043;SDS011;41912;51.022;3.664;2023-03-23T08:35:39;8.88;;;1.88;;
56043;SDS011;41912;51.022;3.664;2023-03-23T08:38:06;7.05;;;2.17;;
56043;SDS011;41912;51.022;3.664;2023-03-23T08:40:31;14.00;;;2.30;;
56043;SDS011;41912;51.022;3.664;2023-03-23T08:42:57;13.85;;;2.70;;
56043;SDS011;41912;51.022;3.664;2023-03-23T08:45:24;9.57;;;1.83;;
56043;SDS011;41912;51.022;3.664;2023-03-23T08:47:51;9.75;;;2.15;;
56043;SDS011;41912;51.022;3.664;2023-03-23T08:50:21;10.38;;;2.42;;
56043;SDS011;41912;51.022;3.664;2023-03-23T08:52:53;10.80;;;2.30;;
56043;SDS011;41912;51.022;3.664;2023-03-23T08:55:19;8.88;;;1.90;;
56043;SDS011;41912;51.022;3.664;2023-03-23T08:57:45;7.93;;;2.08;;
56043;SDS011;41912;51.022;3.664;2023-03-23T09:00:13;6.25;;;1.80;;
56043;SDS011;41912;51.022;3.664;2023-03-23T09:02:43;5.30;;;1.30;;
56043;SDS011;41912;51.022;3.664;2023-03-23T09:05:11;5.50;;;1.55;;
56043;SDS011;41912;51.022;3.664;2023-03-23T09:07:37;8.55;;;1.63;;
56043;SDS011;41912;51.022;3.664;2023-03-23T09:10:04;7.57;;;1.67;;
56043;SDS011;41912;51.022;3.664;2023-03-23T09:12:30;8.52;;;1.90;;
56043;SDS011;41912;51.022;3.664;2023-03-23T09:14:55;9.23;;;1.50;;
56043;SDS011;41912;51.022;3.664;2023-03-23T09:17:21;9.23;;;2.72;;
56043;SDS011;41912;51.022;3.664;2023-03-23T09:19:47;3.80;;;1.45;;
56043;SDS011;41912;51.022;3.664;2023-03-23T09:22:13;7.53;;;1.80;;
56043;SDS011;41912;51.022;3.664;2023-03-23T09:24:40;5.15;;;1.17;;
56043;SDS011;41912;51.022;3.664;2023-03-23T09:27:06;6.40;;;1.30;;
56043;SDS011;41912;51.022;3.664;2023-03-23T09:29:31;4.40;;;1.08;;
56043;SDS011;41912;51.022;3.664;2023-03-23T09:31:57;5.85;;;1.75;;
56043;SDS011;41912;51.022;3.664;2023-03-23T09:34:26;7.45;;;1.58;;
56043;SDS011;41912;51.022;3.664;2023-03-23T09:36:54;6.05;;;1.50;;
56043;SDS011;41912;51.022;3.664;2023-03-23T09:39:19;6.38;;;1.52;;
56043;SDS011;41912;51.022;3.664;2023-03-23T09:42:06;5.40;;;1.45;;
56043;SDS011;41912;51.022;3.664;2023-03-23T09:55:07;12.35;;;1.88;;
56043;SDS011;41912;51.022;3.664;2023-03-23T09:57:49;5.93;;;2.25;;
56043;SDS011;41912;51.022;3.664;2023-03-23T10:00:35;12.68;;;1.95;;
56043;SDS011;41912;51.022;3.664;2023-03-23T10:03:11;6.65;;;1.50;;
56043;SDS011;41912;51.022;3.664;2023-03-23T10:05:46;7.32;;;1.80;;
56043;SDS011;41912;51.022;3.664;2023-03-23T10:08:18;10.85;;;2.85;;
56043;SDS011;41912;51.022;3.664;2023-03-23T10:10:48;7.20;;;2.40;;
56043;SDS011;41912;51.022;3.664;2023-03-23T10:16:26;9.75;;;1.80;;
56043;SDS011;41912;51.022;3.664;2023-03-23T10:18:58;10.48;;;2.05;;
56043;SDS011;41912;51.022;3.664;2023-03-23T10:21:29;7.80;;;2.33;;
56043;SDS011;41912;51.022;3.664;2023-03-23T10:23:58;10.77;;;2.22;;
56043;SDS011;41912;51.022;3.664;2023-03-23T10:29:39;10.18;;;2.05;;
56043;SDS011;41912;51.022;3.664;2023-03-23T10:32:19;7.10;;;2.00;;
56043;SDS011;41912;51.022;3.664;2023-03-23T10:34:53;11.52;;;1.95;;
56043;SDS011;41912;51.022;3.664;2023-03-23T10:37:27;9.05;;;2.15;;
56043;SDS011;41912;51.022;3.664;2023-03-23T10:40:02;10.68;;;1.95;;
56043;SDS011;41912;51.022;3.664;2023-03-23T10:42:35;15.55;;;3.10;;
56043;SDS011;41912;51.022;3.664;2023-03-23T10:47:42;15.70;;;3.53;;
56043;SDS011;41912;51.022;3.664;2023-03-23T10:50:17;8.77;;;2.35;;
56043;SDS011;41912;51.022;3.664;2023-03-23T10:52:48;8.80;;;2.45;;
56043;SDS011;41912;51.022;3.664;2023-03-23T10:55:19;13.50;;;2.67;;
56043;SDS011;41912;51.022;3.664;2023-03-23T10:58:01;12.85;;;3.42;;
56043;SDS011;41912;51.022;3.664;2023-03-23T11:00:29;13.07;;;3.60;;
56043;SDS011;41912;51.022;3.664;2023-03-23T11:05:42;13.73;;;3.10;;
56043;SDS011;41912;51.022;3.664;2023-03-23T11:08:13;4.90;;;1.95;;
56043;SDS011;41912;51.022;3.664;2023-03-23T11:10:51;13.18;;;2.55;;
56043;SDS011;41912;51.022;3.664;2023-03-23T11:13:28;16.50;;;2.90;;
56043;SDS011;41912;51.022;3.664;2023-03-23T11:15:56;18.27;;;2.95;;
56043;SDS011;41912;51.022;3.664;2023-03-23T11:18:24;13.23;;;3.08;;
56043;SDS011;41912;51.022;3.664;2023-03-23T11:21:01;11.05;;;2.55;;
56043;SDS011;41912;51.022;3.664;2023-03-23T11:28:37;19.15;;;3.55;;
56043;SDS011;41912;51.022;3.664;2023-03-23T11:31:12;11.00;;;2.67;;
56043;SDS011;41912;51.022;3.664;2023-03-23T11:33:48;17.60;;;3.00;;
56043;SDS011;41912;51.022;3.664;2023-03-23T11:36:28;15.43;;;3.50;;
56043;SDS011;41912;51.022;3.664;2023-03-23T11:39:02;14.40;;;3.08;;
56043;SDS011;41912;51.022;3.664;2023-03-23T11:41:45;10.02;;;2.10;;
56043;SDS011;41912;51.022;3.664;2023-03-23T11:44:11;16.17;;;3.30;;
56043;SDS011;41912;51.022;3.664;2023-03-23T11:47:39;14.50;;;2.42;;
56043;SDS011;41912;51.022;3.664;2023-03-23T11:53:02;20.50;;;3.25;;
56043;SDS011;41912;51.022;3.664;2023-03-23T11:58:14;16.38;;;2.95;;
56043;SDS011;41912;51.022;3.664;2023-03-23T12:00:58;18.13;;;3.42;;
56043;SDS011;41912;51.022;3.664;2023-03-23T12:03:47;20.17;;;4.10;;
56043;SDS011;41912;51.022;3.664;2023-03-23T12:17:27;14.45;;;3.38;;
56043;SDS011;41912;51.022;3.664;2023-03-23T12:20:17;16.83;;;2.80;;
56043;SDS011;41912;51.022;3.664;2023-03-23T12:22:59;12.82;;;3.88;;
56043;SDS011;41912;51.022;3.664;2023-03-23T12:36:42;10.40;;;2.25;;
56043;SDS011;41912;51.022;3.664;2023-03-23T12:44:43;17.35;;;2.83;;
56043;SDS011;41912;51.022;3.664;2023-03-23T12:50:03;12.27;;;2.55;;
56043;SDS011;41912;51.022;3.664;2023-03-23T12:52:47;19.58;;;3.10;;
56043;SDS011;41912;51.022;3.664;2023-03-23T12:58:21;18.50;;;3.28;;
56043;SDS011;41912;51.022;3.664;2023-03-23T13:01:02;13.95;;;3.38;;
56043;SDS011;41912;51.022;3.664;2023-03-23T13:08:55;17.98;;;2.90;;
56043;SDS011;41912;51.022;3.664;2023-03-23T13:11:42;11.57;;;2.42;;
56043;SDS011;41912;51.022;3.664;2023-03-23T13:19:44;11.98;;;3.35;;
56043;SDS011;41912;51.022;3.664;2023-03-23T13:25:18;15.93;;;2.63;;
56043;SDS011;41912;51.022;3.664;2023-03-23T13:27:56;12.55;;;2.83;;
56043;SDS011;41912;51.022;3.664;2023-03-23T13:30:23;13.35;;;2.47;;
56043;SDS011;41912;51.022;3.664;2023-03-23T13:32:49;14.90;;;3.67;;
56043;SDS011;41912;51.022;3.664;2023-03-23T13:35:18;17.98;;;2.50;;
56043;SDS011;41912;51.022;3.664;2023-03-23T13:37:49;16.73;;;2.45;;
56043;SDS011;41912;51.022;3.664;2023-03-23T13:42:53;11.70;;;3.58;;
56043;SDS011;41912;51.022;3.664;2023-03-23T13:45:22;11.38;;;2.33;;
56043;SDS011;41912;51.022;3.664;2023-03-23T13:47:49;11.57;;;2.90;;
56043;SDS011;41912;51.022;3.664;2023-03-23T13:50:55;13.38;;;2.33;;
56043;SDS011;41912;51.022;3.664;2023-03-23T13:53:26;16.60;;;2.97;;
56043;SDS011;41912;51.022;3.664;2023-03-23T13:56:18;15.70;;;3.22;;
56043;SDS011;41912;51.022;3.664;2023-03-23T13:58:49;10.10;;;2.45;;
56043;SDS011;41912;51.022;3.664;2023-03-23T14:01:19;10.57;;;2.30;;
56043;SDS011;41912;51.022;3.664;2023-03-23T14:04:07;15.57;;;2.33;;
56043;SDS011;41912;51.022;3.664;2023-03-23T14:06:45;8.65;;;2.22;;
56043;SDS011;41912;51.022;3.664;2023-03-23T14:09:17;18.40;;;3.03;;
56043;SDS011;41912;51.022;3.664;2023-03-23T14:11:56;8.57;;;2.25;;
56043;SDS011;41912;51.022;3.664;2023-03-23T14:14:32;9.73;;;2.40;;
56043;SDS011;41912;51.022;3.664;2023-03-23T14:17:14;13.68;;;2.20;;
56043;SDS011;41912;51.022;3.664;2023-03-23T14:19:48;11.63;;;2.65;;
56043;SDS011;41912;51.022;3.664;2023-03-23T14:22:21;12.93;;;2.70;;
56043;SDS011;41912;51.022;3.664;2023-03-23T14:24:48;8.45;;;2.15;;
56043;SDS011;41912;51.022;3.664;2023-03-23T14:27:16;11.73;;;2.00;;
56043;SDS011;41912;51.022;3.664;2023-03-23T14:29:44;9.95;;;2.22;;
56043;SDS011;41912;51.022;3.664;2023-03-23T14:32:13;13.07;;;2.38;;
56043;SDS011;41912;51.022;3.664;2023-03-23T14:34:41;7.05;;;2.00;;
56043;SDS011;41912;51.022;3.664;2023-03-23T14:37:11;13.75;;;2.55;;
56043;SDS011;41912;51.022;3.664;2023-03-23T14:39:38;8.48;;;2.10;;
56043;SDS011;41912;51.022;3.664;2023-03-23T14:42:05;9.13;;;2.35;;
56043;SDS011;41912;51.022;3.664;2023-03-23T14:44:38;13.40;;;2.33;;
56043;SDS011;41912;51.022;3.664;2023-03-23T14:47:25;7.07;;;2.00;;
56043;SDS011;41912;51.022;3.664;2023-03-23T14:49:55;8.98;;;1.90;;
56043;SDS011;41912;51.022;3.664;2023-03-23T14:52:24;10.55;;;2.60;;
56043;SDS011;41912;51.022;3.664;2023-03-23T14:54:52;16.27;;;2.60;;
56043;SDS011;41912;51.022;3.664;2023-03-23T14:57:19;10.80;;;2.85;;
56043;SDS011;41912;51.022;3.664;2023-03-23T14:59:51;16.00;;;3.78;;
56043;SDS011;41912;51.022;3.664;2023-03-23T15:05:06;11.40;;;2.42;;
56043;SDS011;41912;51.022;3.664;2023-03-23T15:07:38;11.18;;;2.50;;
56043;SDS011;41912;51.022;3.664;2023-03-23T15:10:06;13.52;;;2.92;;
56043;SDS011;41912;51.022;3.664;2023-03-23T15:12:34;11.27;;;2.10;;
56043;SDS011;41912;51.022;3.664;2023-03-23T15:15:07;12.00;;;2.85;;
56043;SDS011;41912;51.022;3.664;2023-03-23T15:17:47;14.13;;;2.63;;
56043;SDS011;41912;51.022;3.664;2023-03-23T15:20:21;16.83;;;3.42;;
56043;SDS011;41912;51.022;3.664;2023-03-23T15:22:47;13.18;;;2.40;;
56043;SDS011;41912;51.022;3.664;2023-03-23T15:27:56;9.80;;;2.33;;
56043;SDS011;41912;51.022;3.664;2023-03-23T15:30:50;14.35;;;2.88;;
56043;SDS011;41912;51.022;3.664;2023-03-23T15:33:17;13.20;;;3.17;;
56043;SDS011;41912;51.022;3.664;2023-03-23T15:35:51;9.75;;;2.17;;
56043;SDS011;41912;51.022;3.664;2023-03-23T15:38:20;13.07;;;2.65;;
56043;SDS011;41912;51.022;3.664;2023-03-23T15:40:49;14.75;;;2.97;;
56043;SDS011;41912;51.022;3.664;2023-03-23T15:43:21;10.07;;;2.22;;
56043;SDS011;41912;51.022;3.664;2023-03-23T15:48:21;18.70;;;2.88;;
56043;SDS011;41912;51.022;3.664;2023-03-23T15:50:47;18.48;;;3.45;;
56043;SDS011;41912;51.022;3.664;2023-03-23T15:56:00;17.83;;;3.17;;
56043;SDS011;41912;51.022;3.664;2023-03-23T15:58:28;16.38;;;3.20;;
56043;SDS011;41912;51.022;3.664;2023-03-23T16:00:55;15.23;;;2.42;;
56043;SDS011;41912;51.022;3.664;2023-03-23T16:03:25;11.27;;;2.28;;
56043;SDS011;41912;51.022;3.664;2023-03-23T16:05:59;16.17;;;3.38;;
56043;SDS011;41912;51.022;3.664;2023-03-23T16:08:27;11.13;;;2.60;;
56043;SDS011;41912;51.022;3.664;2023-03-23T16:10:53;15.45;;;3.03;;
56043;SDS011;41912;51.022;3.664;2023-03-23T16:13:18;13.55;;;2.75;;
56043;SDS011;41912;51.022;3.664;2023-03-23T16:15:45;20.83;;;3.85;;
56043;SDS011;41912;51.022;3.664;2023-03-23T16:18:18;13.82;;;2.72;;
56043;SDS011;41912;51.022;3.664;2023-03-23T16:20:46;14.02;;;3.00;;
56043;SDS011;41912;51.022;3.664;2023-03-23T16:23:13;12.52;;;3.60;;
56043;SDS011;41912;51.022;3.664;2023-03-23T16:25:38;13.05;;;2.47;;
56043;SDS011;41912;51.022;3.664;2023-03-23T16:28:04;8.30;;;2.45;;
56043;SDS011;41912;51.022;3.664;2023-03-23T16:30:33;11.20;;;2.65;;
56043;SDS011;41912;51.022;3.664;2023-03-23T16:33:00;18.83;;;3.42;;
56043;SDS011;41912;51.022;3.664;2023-03-23T16:35:26;10.60;;;2.22;;
56043;SDS011;41912;51.022;3.664;2023-03-23T16:37:53;12.73;;;2.25;;
56043;SDS011;41912;51.022;3.664;2023-03-23T16:40:20;10.20;;;2.05;;
56043;SDS011;41912;51.022;3.664;2023-03-23T16:46:08;9.90;;;2.72;;
56043;SDS011;41912;51.022;3.664;2023-03-23T16:48:36;9.60;;;2.53;;
56043;SDS011;41912;51.022;3.664;2023-03-23T16:51:02;11.05;;;2.33;;
56043;SDS011;41912;51.022;3.664;2023-03-23T16:53:27;13.52;;;2.30;;
56043;SDS011;41912;51.022;3.664;2023-03-23T16:55:53;10.10;;;2.22;;
56043;SDS011;41912;51.022;3.664;2023-03-23T16:58:21;10.73;;;2.38;;
56043;SDS011;41912;51.022;3.664;2023-03-23T17:00:48;13.90;;;2.88;;